Time;durP1;ratioP1;P1;durP2;ratioP2;P2;SDS_P1;SDS_P2;PMS_P1;PMS_P2;Temp;Humidity;BMP_temperature;BMP_pressure;BME280_temperature;BME280_humidity;BME280_pressure;Samples;Min_cycle;Max_cycle;Signal;HPM_P1;HPM_P2
2022/12/07 00:00:15;;;;;;;5.80;5.60;;;21.10;53.10;;;;;;5012653;28;20452;-57
2022/12/07 00:02:42;;;;;;;5.90;5.70;;;21.00;53.00;;;;;;5012208;28;20566;-59
2022/12/07 00:05:09;;;;;;;5.40;5.30;;;21.10;53.10;;;;;;5012476;28;20444;-59
2022/12/07 00:07:36;;;;;;;6.50;6.30;;;21.00;53.00;;;;;;5012286;28;20529;-58
2022/12/07 00:10:05;;;;;;;5.30;5.20;;;21.00;53.10;;;;;;5012188;28;20836;-58
2022/12/07 00:12:32;;;;;;;5.63;5.53;;;21.00;53.10;;;;;;5012054;28;20466;-60
2022/12/07 00:14:58;;;;;;;5.80;5.70;;;21.00;53.10;;;;;;5012228;28;20500;-57
2022/12/07 00:17:25;;;;;;;5.90;5.80;;;21.00;53.10;;;;;;5012226;28;20447;-56
2022/12/07 00:19:52;;;;;;;5.70;5.50;;;21.00;53.10;;;;;;5011676;28;20457;-60
2022/12/07 00:22:19;;;;;;;6.03;5.83;;;21.00;53.10;;;;;;5011973;28;20488;-59
2022/12/07 00:24:46;;;;;;;6.00;5.80;;;21.00;53.60;;;;;;5012229;28;20442;-55
2022/12/07 00:27:15;;;;;;;5.97;5.80;;;21.00;53.10;;;;;;5013318;28;20875;-56
2022/12/07 00:29:42;;;;;;;6.27;5.83;;;20.90;53.10;;;;;;5011528;28;20449;-57
2022/12/07 00:32:09;;;;;;;5.70;5.60;;;21.00;53.20;;;;;;5012364;28;20458;-60
2022/12/07 00:34:36;;;;;;;5.60;5.50;;;21.00;53.20;;;;;;5012018;28;20801;-58
2022/12/07 00:37:02;;;;;;;5.80;5.50;;;21.00;53.20;;;;;;5012272;28;20474;-56
2022/12/07 00:39:29;;;;;;;5.90;5.70;;;21.00;53.10;;;;;;5011591;28;20452;-60
2022/12/07 00:41:56;;;;;;;6.30;6.10;;;21.00;53.10;;;;;;5011711;28;21060;-59
2022/12/07 00:44:24;;;;;;;5.63;5.43;;;20.90;53.00;;;;;;5012057;28;20452;-58
2022/12/07 00:46:54;;;;;;;6.30;6.10;;;20.90;53.10;;;;;;5012362;28;20449;-58
2022/12/07 00:49:21;;;;;;;6.03;5.83;;;20.90;53.10;;;;;;5012250;28;20445;-61
2022/12/07 00:51:49;;;;;;;6.57;6.27;;;20.90;53.20;;;;;;5011907;28;20470;-59
2022/12/07 00:54:16;;;;;;;6.00;5.80;;;20.90;53.20;;;;;;5013427;28;20478;-56
2022/12/07 00:56:43;;;;;;;5.40;5.20;;;20.90;53.20;;;;;;5011992;28;20569;-58
2022/12/07 00:59:13;;;;;;;6.17;6.03;;;20.90;53.20;;;;;;5010985;28;21028;-57
2022/12/07 01:01:41;;;;;;;5.80;5.70;;;20.90;53.20;;;;;;5000618;28;20457;-54
2022/12/07 01:04:08;;;;;;;6.17;5.97;;;20.90;53.20;;;;;;5017512;28;20445;-57
2022/12/07 01:06:35;;;;;;;6.07;5.87;;;20.90;53.30;;;;;;5018329;28;20442;-55
2022/12/07 01:09:03;;;;;;;6.13;5.93;;;20.90;53.30;;;;;;5015865;28;20456;-57
2022/12/07 01:11:31;;;;;;;6.40;6.20;;;20.90;53.30;;;;;;5016466;28;20496;-58
2022/12/07 01:14:00;;;;;;;5.67;5.47;;;20.90;53.30;;;;;;5016877;28;20528;-57
2022/12/07 01:16:29;;;;;;;6.03;5.83;;;20.90;53.30;;;;;;5015532;28;20513;-60
2022/12/07 01:19:02;;;;;;;5.50;5.40;;;20.90;53.30;;;;;;5017320;28;20529;-60
2022/12/07 01:21:32;;;;;;;5.90;5.80;;;20.90;53.30;;;;;;5017877;28;20486;-57
2022/12/07 01:23:59;;;;;;;6.30;6.20;;;20.90;53.30;;;;;;5016109;28;20456;-56
2022/12/07 01:26:26;;;;;;;6.03;5.83;;;20.90;53.30;;;;;;5016507;28;20477;-56
2022/12/07 01:28:55;;;;;;;6.23;6.03;;;20.90;53.30;;;;;;5016452;28;20533;-57
2022/12/07 01:31:23;;;;;;;5.57;5.47;;;20.80;53.30;;;;;;5015413;28;20449;-58
2022/12/07 01:33:52;;;;;;;6.43;6.23;;;20.80;53.30;;;;;;5016399;28;20556;-60
2022/12/07 01:36:24;;;;;;;5.70;5.60;;;20.80;53.30;;;;;;5016237;28;20539;-59
2022/12/07 01:38:56;;;;;;;5.57;5.47;;;20.80;53.40;;;;;;5016156;28;20456;-60
2022/12/07 01:41:24;;;;;;;6.17;6.00;;;20.80;53.40;;;;;;5017044;28;20457;-57
2022/12/07 01:44:22;;;;;;;6.20;6.00;;;20.80;53.40;;;;;;5039623;23;1147114;-60
2022/12/07 01:46:50;;;;;;;5.43;5.33;;;20.80;53.40;;;;;;4935222;29;20566;-59
2022/12/07 01:49:23;;;;;;;5.63;5.53;;;20.80;53.40;;;;;;5017041;28;20539;-60
2022/12/07 01:51:55;;;;;;;5.93;5.73;;;20.80;53.40;;;;;;5034678;28;20441;-61
2022/12/07 01:54:23;;;;;;;6.23;6.03;;;20.80;53.40;;;;;;5034563;28;20539;-62
2022/12/07 01:56:55;;;;;;;6.17;5.97;;;20.80;53.40;;;;;;5021506;28;20484;-59
2022/12/07 01:59:25;;;;;;;5.23;5.13;;;20.80;53.40;;;;;;5014676;28;20507;-59
2022/12/07 02:01:52;;;;;;;6.37;6.17;;;20.80;53.40;;;;;;5014615;28;20457;-60
2022/12/07 02:04:19;;;;;;;5.50;5.40;;;20.80;53.40;;;;;;5019975;28;20461;-61
2022/12/07 02:06:47;;;;;;;5.70;5.60;;;20.80;53.40;;;;;;5034424;28;20463;-59
2022/12/07 02:09:16;;;;;;;6.40;6.20;;;20.80;53.40;;;;;;5033931;28;20500;-58
2022/12/07 02:11:43;;;;;;;5.70;5.60;;;20.80;53.40;;;;;;5034347;28;20943;-58
2022/12/07 02:14:10;;;;;;;6.00;5.80;;;20.80;53.40;;;;;;5029790;28;20465;-61
2022/12/07 02:16:48;;;;;;;5.87;5.77;;;20.80;53.40;;;;;;5014453;28;20477;-60
2022/12/07 02:19:47;;;;;;;5.80;5.60;;;20.80;53.40;;;;;;5014190;28;20532;-59
2022/12/07 02:22:29;;;;;;;6.33;6.13;;;20.70;53.30;;;;;;4997660;28;20524;-61
2022/12/07 02:25:06;;;;;;;6.87;6.57;;;20.70;53.40;;;;;;5024238;28;20524;-60
2022/12/07 02:27:44;;;;;;;6.43;6.00;;;20.70;53.40;;;;;;5034089;28;20440;-61
2022/12/07 02:30:14;;;;;;;5.80;5.70;;;20.70;53.40;;;;;;5033857;28;20455;-58
2022/12/07 02:32:46;;;;;;;6.40;6.20;;;20.70;53.50;;;;;;5033988;28;20496;-60
2022/12/07 02:35:18;;;;;;;5.40;5.30;;;20.70;53.50;;;;;;5032105;28;20879;-62
2022/12/07 02:37:54;;;;;;;5.40;5.30;;;20.70;53.50;;;;;;5033839;28;20536;-60
2022/12/07 02:40:26;;;;;;;5.40;5.30;;;20.70;53.50;;;;;;5033534;28;20444;-61
2022/12/07 02:42:59;;;;;;;6.23;6.03;;;20.70;53.40;;;;;;5033591;28;20480;-59
2022/12/07 02:45:30;;;;;;;5.47;5.27;;;20.70;53.40;;;;;;5019778;28;20469;-60
2022/12/07 02:48:00;;;;;;;6.30;6.10;;;20.70;53.40;;;;;;5014066;28;20857;-61
2022/12/07 02:50:27;;;;;;;5.70;5.60;;;20.70;53.50;;;;;;5014175;28;20871;-59
2022/12/07 02:52:54;;;;;;;5.57;5.47;;;20.70;53.40;;;;;;5013825;28;20553;-58
2022/12/07 02:55:27;;;;;;;6.37;6.17;;;20.70;53.50;;;;;;5026233;28;21010;-59
2022/12/07 02:58:18;;;;;;;5.90;5.70;;;20.70;53.50;;;;;;5033480;28;20449;-59
2022/12/07 03:00:57;;;;;;;5.67;5.57;;;20.70;54.10;;;;;;5033296;28;20528;-60
2022/12/07 03:03:24;;;;;;;5.80;5.60;;;20.70;53.50;;;;;;5022615;28;20545;-59
2022/12/07 03:06:07;;;;;;;7.03;6.70;;;20.70;53.50;;;;;;5013491;28;20442;-59
2022/12/07 03:08:43;;;;;;;5.87;5.77;;;20.70;53.50;;;;;;5013512;28;20953;-59
2022/12/07 03:11:14;;;;;;;6.33;5.93;;;20.70;53.40;;;;;;5013367;28;20517;-60
2022/12/07 03:13:46;;;;;;;5.43;5.33;;;20.70;53.50;;;;;;5025465;28;21018;-63
2022/12/07 03:16:17;;;;;;;5.77;5.67;;;20.70;53.50;;;;;;5033013;28;20568;-59
2022/12/07 03:18:49;;;;;;;6.13;5.83;;;20.70;53.50;;;;;;5028860;28;20446;-59
2022/12/07 03:21:24;;;;;;;5.90;5.80;;;20.70;53.40;;;;;;5012612;28;20525;-60
2022/12/07 03:23:54;;;;;;;5.40;5.30;;;20.70;53.40;;;;;;5026480;28;20982;-61
2022/12/07 03:26:25;;;;;;;6.20;6.00;;;20.70;53.40;;;;;;5032946;28;20469;-59
2022/12/07 03:28:56;;;;;;;5.73;5.50;;;20.70;53.30;;;;;;5032697;28;20481;-61
2022/12/07 03:31:29;;;;;;;5.80;5.60;;;20.70;53.30;;;;;;5032760;28;20449;-61
2022/12/07 03:34:02;;;;;;;5.97;5.80;;;20.70;53.30;;;;;;5018558;28;20991;-61
2022/12/07 03:36:35;;;;;;;6.77;6.47;;;20.70;53.30;;;;;;5012970;28;20482;-60
2022/12/07 03:39:05;;;;;;;6.33;6.13;;;20.70;53.30;;;;;;5012808;28;20452;-61
2022/12/07 03:41:34;;;;;;;5.70;5.60;;;20.70;53.30;;;;;;5012859;28;20537;-61
2022/12/07 03:44:02;;;;;;;5.80;5.70;;;20.70;53.30;;;;;;5026825;28;20487;-62
2022/12/07 03:46:36;;;;;;;5.70;5.60;;;20.70;53.40;;;;;;5032561;28;20444;-61
2022/12/07 03:49:10;;;;;;;5.97;5.80;;;20.70;53.40;;;;;;5032415;28;20440;-61
2022/12/07 03:51:44;;;;;;;5.70;5.50;;;20.70;53.40;;;;;;5032384;28;20892;-62
2022/12/07 03:54:16;;;;;;;5.67;5.57;;;20.70;53.30;;;;;;5016708;28;20470;-60
2022/12/07 03:56:45;;;;;;;5.43;5.33;;;20.70;53.30;;;;;;5012620;28;20486;-61
2022/12/07 03:59:14;;;;;;;6.13;5.93;;;20.70;53.40;;;;;;5012382;28;20525;-62
2022/12/07 04:01:44;;;;;;;5.60;5.50;;;20.60;53.30;;;;;;5012472;28;20481;-63
2022/12/07 04:04:11;;;;;;;6.10;5.90;;;20.70;53.40;;;;;;5027604;28;20544;-60
2022/12/07 04:06:38;;;;;;;6.10;5.90;;;20.70;53.40;;;;;;5032091;28;20440;-62
2022/12/07 04:09:05;;;;;;;5.90;5.70;;;20.70;53.90;;;;;;5031961;28;20531;-62
2022/12/07 04:11:31;;;;;;;6.10;6.00;;;20.70;53.40;;;;;;5024853;28;20533;-62
2022/12/07 04:16:44;;;;;;;6.10;5.90;;;20.70;53.30;;;;;;5012281;28;20473;-59
2022/12/07 04:19:11;;;;;;;5.83;5.70;;;20.70;53.30;;;;;;5012094;28;20446;-61
2022/12/07 04:21:38;;;;;;;6.37;6.17;;;20.70;53.30;;;;;;5012384;28;20442;-61
2022/12/07 04:24:05;;;;;;;5.80;5.70;;;20.70;53.30;;;;;;5012095;28;20553;-61
2022/12/07 04:26:32;;;;;;;5.63;5.53;;;20.70;53.20;;;;;;5012127;28;20442;-61
2022/12/07 04:28:59;;;;;;;5.97;5.77;;;20.70;53.20;;;;;;5011935;28;20449;-57
2022/12/07 04:31:26;;;;;;;6.40;6.20;;;20.70;53.20;;;;;;5017377;28;20962;-61
2022/12/07 04:33:54;;;;;;;6.40;6.20;;;20.70;53.20;;;;;;5031716;28;20576;-63
2022/12/07 04:36:21;;;;;;;5.90;5.80;;;20.70;53.20;;;;;;5031589;28;20573;-61
2022/12/07 04:38:48;;;;;;;6.30;6.20;;;20.80;53.30;;;;;;5031589;28;20459;-61
2022/12/07 04:41:15;;;;;;;6.40;6.20;;;20.70;53.20;;;;;;5030013;28;20472;-62
2022/12/07 04:43:42;;;;;;;6.20;6.10;;;20.80;53.30;;;;;;5031498;28;20935;-62
2022/12/07 04:46:09;;;;;;;6.00;5.90;;;20.80;53.30;;;;;;5031573;28;20452;-62
2022/12/07 04:48:35;;;;;;;5.87;5.77;;;20.80;53.80;;;;;;5031525;28;20954;-62
2022/12/07 04:51:05;;;;;;;6.30;6.10;;;20.80;53.30;;;;;;5029306;28;20536;-62
2022/12/07 04:53:32;;;;;;;5.90;5.80;;;20.70;53.20;;;;;;5011659;28;20553;-61
2022/12/07 04:56:00;;;;;;;6.30;6.20;;;20.80;53.30;;;;;;5011808;28;20482;-62
2022/12/07 04:58:27;;;;;;;6.53;6.33;;;20.80;53.30;;;;;;5011829;28;20483;-62
2022/12/07 05:00:55;;;;;;;6.10;6.00;;;20.80;53.20;;;;;;5011713;28;20442;-62
2022/12/07 05:03:22;;;;;;;6.60;6.50;;;20.80;53.20;;;;;;5031403;28;20461;-62
2022/12/07 05:05:48;;;;;;;7.63;7.33;;;20.80;53.20;;;;;;5031422;28;20455;-61
2022/12/07 05:08:17;;;;;;;6.87;6.70;;;20.80;53.20;;;;;;5031411;28;20445;-63
2022/12/07 05:10:43;;;;;;;6.60;6.40;;;20.80;53.20;;;;;;5031194;28;20444;-63
2022/12/07 05:13:10;;;;;;;7.00;6.80;;;20.80;53.20;;;;;;5025637;28;20468;-63
2022/12/07 05:15:37;;;;;;;7.07;6.87;;;20.80;53.20;;;;;;5031192;28;20446;-63
2022/12/07 05:18:04;;;;;;;7.23;7.03;;;20.80;53.20;;;;;;5031234;28;20867;-63
2022/12/07 05:20:31;;;;;;;6.77;6.57;;;20.80;53.20;;;;;;5030987;28;20963;-63
2022/12/07 05:22:58;;;;;;;6.57;6.40;;;20.80;53.20;;;;;;5014234;28;20509;-63
2022/12/07 05:25:26;;;;;;;6.43;6.23;;;20.80;53.10;;;;;;5011500;28;20449;-63
2022/12/07 05:27:55;;;;;;;6.27;6.07;;;20.80;53.30;;;;;;5011477;28;20448;-63
2022/12/07 05:30:22;;;;;;;7.20;7.00;;;20.80;53.30;;;;;;5011249;28;20536;-63
2022/12/07 05:32:49;;;;;;;6.43;6.23;;;20.80;53.30;;;;;;5026545;28;20831;-63
2022/12/07 05:35:16;;;;;;;6.53;6.40;;;20.90;53.40;;;;;;5031281;28;20451;-63
2022/12/07 05:37:43;;;;;;;7.00;6.70;;;20.80;53.40;;;;;;5031134;28;20507;-63
2022/12/07 05:40:11;;;;;;;7.00;6.80;;;20.90;53.40;;;;;;5030959;28;20477;-61
2022/12/07 05:42:39;;;;;;;7.23;6.93;;;20.90;53.40;;;;;;5019885;28;20558;-61
2022/12/07 05:45:07;;;;;;;6.50;6.40;;;20.90;53.40;;;;;;5022340;28;20516;-62
2022/12/07 05:47:34;;;;;;;6.70;6.50;;;20.90;53.50;;;;;;5034877;28;20441;-62
2022/12/07 05:50:01;;;;;;;6.67;6.57;;;20.90;53.50;;;;;;5034591;28;20448;-63
2022/12/07 05:52:28;;;;;;;7.27;6.97;;;20.80;53.40;;;;;;5022467;28;20466;-63
2022/12/07 05:54:54;;;;;;;6.97;6.77;;;20.90;53.50;;;;;;5014979;28;20450;-63
2022/12/07 05:57:21;;;;;;;7.20;7.00;;;20.90;53.40;;;;;;5014793;28;20481;-62
2022/12/07 05:59:48;;;;;;;6.80;6.70;;;20.90;53.50;;;;;;5015222;28;20963;-62
2022/12/07 06:02:17;;;;;;;7.50;7.23;;;20.90;53.40;;;;;;5024061;28;20452;-63
2022/12/07 06:04:46;;;;;;;7.40;7.30;;;20.90;53.50;;;;;;5021906;28;20456;-61
2022/12/07 06:07:16;;;;;;;7.00;6.80;;;20.90;53.40;;;;;;5015532;28;20496;-62
2022/12/07 06:09:43;;;;;;;7.50;7.30;;;20.90;53.40;;;;;;5015161;28;20456;-63
2022/12/07 06:14:57;;;;;;;7.40;7.20;;;20.90;53.50;;;;;;5035440;28;20459;-62
2022/12/07 06:17:25;;;;;;;7.50;7.30;;;20.90;53.40;;;;;;5016580;28;20481;-62
2022/12/07 06:19:51;;;;;;;7.70;7.50;;;20.90;53.40;;;;;;5015081;28;20540;-62
2022/12/07 06:22:18;;;;;;;7.20;6.90;;;20.90;53.40;;;;;;5024133;28;20532;-62
2022/12/07 06:24:46;;;;;;;7.57;7.37;;;20.90;53.40;;;;;;5035010;28;20472;-62
2022/12/07 06:27:12;;;;;;;7.07;6.87;;;21.00;53.50;;;;;;5034049;28;20863;-60
2022/12/07 06:29:39;;;;;;;8.20;7.90;;;21.00;53.60;;;;;;5033759;28;20583;-60
2022/12/07 06:32:07;;;;;;;7.33;7.03;;;21.10;53.70;;;;;;5026465;28;20541;-62
2022/12/07 06:34:34;;;;;;;11.63;10.83;;;21.10;53.80;;;;;;5025000;28;21011;-61
2022/12/07 06:37:01;;;;;;;9.30;8.37;;;21.20;54.30;;;;;;5033747;28;20485;-61
2022/12/07 06:39:29;;;;;;;9.97;8.97;;;21.20;54.70;;;;;;5033758;28;20445;-62
2022/12/07 06:41:56;;;;;;;11.77;10.53;;;21.20;55.30;;;;;;5027929;28;20452;-61
2022/12/07 06:44:24;;;;;;;12.43;11.10;;;21.20;56.30;;;;;;5014477;28;20561;-63
2022/12/07 06:46:52;;;;;;;15.40;10.07;;;21.30;59.00;;;;;;5026508;28;20528;-66
2022/12/07 06:49:20;;;;;;;11.97;10.80;;;21.30;59.30;;;;;;5032908;28;20870;-65
2022/12/07 06:51:47;;;;;;;14.73;10.63;;;21.40;60.50;;;;;;5033615;28;20449;-66
2022/12/07 06:54:16;;;;;;;15.80;11.37;;;21.50;60.20;;;;;;5033540;28;20467;-65
2022/12/07 06:56:43;;;;;;;14.60;9.90;;;21.50;59.50;;;;;;5032266;28;20567;-65
2022/12/07 06:59:10;;;;;;;10.73;9.80;;;21.60;58.80;;;;;;5033335;28;20527;-65
2022/12/07 07:01:37;;;;;;;11.70;10.40;;;21.60;58.20;;;;;;5033333;28;20817;-65
2022/12/07 07:04:05;;;;;;;10.10;9.27;;;21.60;57.60;;;;;;5033359;28;20831;-65
2022/12/07 07:06:33;;;;;;;9.80;9.00;;;21.70;57.20;;;;;;5033400;28;20536;-64
2022/12/07 07:09:00;;;;;;;10.60;9.10;;;21.70;56.70;;;;;;5033241;28;20441;-64
2022/12/07 07:11:27;;;;;;;12.10;10.53;;;21.70;56.30;;;;;;5033116;28;20441;-64
2022/12/07 07:13:56;;;;;;;10.73;9.80;;;21.70;55.90;;;;;;5033047;28;20603;-65
2022/12/07 07:16:23;;;;;;;9.83;8.90;;;21.80;55.70;;;;;;5033142;28;20453;-66
2022/12/07 07:18:50;;;;;;;9.43;8.63;;;21.80;55.50;;;;;;5032927;28;20444;-65
2022/12/07 07:21:17;;;;;;;9.67;8.30;;;21.80;55.20;;;;;;5033040;28;20453;-65
2022/12/07 07:23:45;;;;;;;7.80;7.10;;;21.80;54.90;;;;;;5032993;28;20461;-65
2022/12/07 07:26:12;;;;;;;10.63;9.63;;;21.80;54.80;;;;;;5032956;28;20452;-65
2022/12/07 07:28:39;;;;;;;8.73;7.93;;;21.80;54.60;;;;;;5033326;28;20445;-65
2022/12/07 07:31:06;;;;;;;9.27;8.77;;;21.80;54.40;;;;;;5033146;28;20441;-65
2022/12/07 07:33:33;;;;;;;8.50;7.60;;;21.80;54.20;;;;;;5032913;28;20483;-65
2022/12/07 07:36:00;;;;;;;9.50;8.33;;;21.80;54.60;;;;;;5032774;28;20940;-64
2022/12/07 07:38:27;;;;;;;11.20;8.00;;;21.80;53.90;;;;;;5032632;28;20480;-64
2022/12/07 07:40:55;;;;;;;10.70;7.17;;;21.80;53.80;;;;;;5032405;28;20437;-64
2022/12/07 07:43:22;;;;;;;8.10;7.70;;;21.80;53.70;;;;;;5074882;23;20499;-61
2022/12/07 07:45:48;;;;;;;8.13;7.40;;;21.80;53.50;;;;;;5036905;28;20551;-59
2022/12/07 07:48:15;;;;;;;8.90;8.13;;;21.80;53.40;;;;;;5033587;28;20448;-59
2022/12/07 07:50:42;;;;;;;7.57;7.00;;;21.80;53.30;;;;;;5032224;28;20947;-62
2022/12/07 07:53:09;;;;;;;8.10;7.53;;;21.80;53.20;;;;;;5032310;28;20461;-60
2022/12/07 07:55:36;;;;;;;7.77;7.27;;;21.80;53.10;;;;;;5032295;28;20455;-60
2022/12/07 07:58:04;;;;;;;7.33;7.03;;;21.80;53.10;;;;;;5033909;28;20489;-60
2022/12/07 08:00:31;;;;;;;8.00;7.53;;;21.80;53.00;;;;;;5033760;28;20449;-60
2022/12/07 08:02:59;;;;;;;8.47;7.77;;;21.80;52.90;;;;;;5032177;28;20872;-58
2022/12/07 08:05:26;;;;;;;7.57;7.07;;;21.80;52.80;;;;;;5033935;28;20804;-63
2022/12/07 08:07:53;;;;;;;7.73;7.43;;;21.80;52.70;;;;;;5031989;28;20452;-63
2022/12/07 08:10:20;;;;;;;7.67;7.27;;;21.80;52.70;;;;;;5031886;28;20447;-60
2022/12/07 08:15:33;;;;;;;8.23;7.73;;;21.80;52.50;;;;;;5035033;28;20416;-58
2022/12/07 08:17:59;;;;;;;7.80;7.33;;;21.80;52.40;;;;;;5035519;28;20545;-63
2022/12/07 08:20:27;;;;;;;8.43;8.00;;;21.80;52.30;;;;;;5033256;28;20452;-62
2022/12/07 08:22:54;;;;;;;7.80;7.33;;;21.80;52.30;;;;;;5033026;28;20497;-63
2022/12/07 08:25:21;;;;;;;6.77;6.47;;;21.80;52.20;;;;;;5035850;28;20528;-61
2022/12/07 08:27:48;;;;;;;7.83;7.43;;;21.80;52.10;;;;;;5032609;28;20449;-63
2022/12/07 08:30:15;;;;;;;8.07;7.47;;;21.80;52.10;;;;;;5032019;28;20509;-62
2022/12/07 08:32:45;;;;;;;7.30;6.90;;;21.80;52.00;;;;;;5033638;28;20441;-60
2022/12/07 08:35:12;;;;;;;7.93;7.63;;;21.90;52.00;;;;;;5032590;28;20449;-61
2022/12/07 08:37:39;;;;;;;8.57;8.03;;;21.80;51.90;;;;;;5031618;28;20481;-60
2022/12/07 08:40:09;;;;;;;7.30;6.90;;;21.80;51.90;;;;;;5032239;28;20484;-60
2022/12/07 08:42:39;;;;;;;7.43;7.13;;;21.80;51.70;;;;;;5031619;28;20528;-62
2022/12/07 08:45:08;;;;;;;7.67;7.37;;;21.90;51.70;;;;;;5031837;28;20858;-62
2022/12/07 08:47:36;;;;;;;7.40;7.10;;;21.90;51.70;;;;;;5031799;28;20806;-63
2022/12/07 08:50:06;;;;;;;6.83;6.60;;;21.90;51.60;;;;;;5032090;28;20892;-63
2022/12/07 08:52:34;;;;;;;7.60;7.20;;;21.90;51.50;;;;;;5031588;28;20870;-62
2022/12/07 08:55:03;;;;;;;7.17;6.90;;;21.90;51.50;;;;;;5031662;28;20936;-60
2022/12/07 08:57:30;;;;;;;7.03;6.70;;;21.90;51.40;;;;;;5032968;28;20901;-58
2022/12/07 08:59:58;;;;;;;6.63;6.37;;;22.00;51.40;;;;;;5032692;28;20495;-60
2022/12/07 09:02:25;;;;;;;6.93;6.53;;;21.90;51.30;;;;;;5031664;28;20940;-60
2022/12/07 09:04:51;;;;;;;6.97;6.67;;;21.90;51.20;;;;;;5031692;28;20541;-60
2022/12/07 09:07:20;;;;;;;7.63;7.33;;;22.00;51.30;;;;;;5032721;28;20836;-60
2022/12/07 09:09:46;;;;;;;6.97;6.67;;;22.00;51.20;;;;;;5031300;28;20813;-63
2022/12/07 09:12:13;;;;;;;7.33;7.03;;;22.00;51.70;;;;;;5031406;28;20445;-62
2022/12/07 09:14:40;;;;;;;7.27;6.90;;;22.00;51.10;;;;;;5031232;28;20469;-62
2022/12/07 09:17:08;;;;;;;6.83;6.60;;;22.00;51.00;;;;;;5031307;28;20448;-63
2022/12/07 09:19:35;;;;;;;8.40;8.00;;;22.00;51.00;;;;;;5032621;28;20449;-63
2022/12/07 09:22:02;;;;;;;7.60;7.30;;;22.00;51.00;;;;;;5035138;28;20897;-63
2022/12/07 09:24:30;;;;;;;8.33;7.93;;;22.00;50.90;;;;;;5035063;28;20891;-61
2022/12/07 09:26:57;;;;;;;8.00;7.40;;;22.00;50.90;;;;;;5035158;28;20528;-62
2022/12/07 09:29:24;;;;;;;8.90;8.23;;;22.00;50.80;;;;;;5034990;28;20441;-62
2022/12/07 09:31:51;;;;;;;7.10;6.90;;;22.00;50.80;;;;;;5035012;28;20951;-62
2022/12/07 09:34:18;;;;;;;8.10;7.57;;;22.00;50.70;;;;;;5034993;28;20928;-62
2022/12/07 09:36:46;;;;;;;7.30;7.03;;;22.00;50.70;;;;;;5035106;28;20532;-63
2022/12/07 09:39:13;;;;;;;6.83;6.63;;;22.00;50.70;;;;;;5034755;28;20484;-62
2022/12/07 09:41:43;;;;;;;7.50;7.17;;;22.00;50.60;;;;;;5034895;28;20882;-62
2022/12/07 09:44:14;;;;;;;7.37;7.07;;;22.00;50.50;;;;;;5034636;28;20571;-63
2022/12/07 09:46:43;;;;;;;7.07;6.77;;;22.00;50.50;;;;;;5034878;28;20528;-60
2022/12/07 09:49:14;;;;;;;7.63;7.33;;;22.00;50.50;;;;;;5034687;28;21019;-62
2022/12/07 09:51:41;;;;;;;6.80;6.60;;;22.00;50.50;;;;;;5034719;28;20441;-61
2022/12/07 09:54:12;;;;;;;7.07;6.77;;;22.00;50.40;;;;;;5034514;28;20907;-62
2022/12/07 09:56:40;;;;;;;7.57;7.33;;;22.00;50.40;;;;;;5034930;28;20864;-61
2022/12/07 09:59:13;;;;;;;7.73;7.43;;;22.00;50.40;;;;;;5034358;28;20483;-61
2022/12/07 10:01:40;;;;;;;6.70;6.50;;;22.00;50.30;;;;;;5034523;28;20445;-62
2022/12/07 10:04:12;;;;;;;7.40;6.90;;;22.00;50.20;;;;;;5034426;28;20465;-61
2022/12/07 10:06:40;;;;;;;6.90;6.70;;;22.00;50.20;;;;;;5034526;28;20445;-59
2022/12/07 10:09:11;;;;;;;7.17;6.97;;;22.00;50.70;;;;;;5034310;28;20445;-61
2022/12/07 10:12:01;;;;;;;8.27;7.97;;;22.00;50.10;;;;;;5034589;28;20437;-62
2022/12/07 10:14:29;;;;;;;6.50;6.40;;;22.00;50.10;;;;;;5034310;28;20543;-60
2022/12/07 10:16:57;;;;;;;7.17;6.70;;;22.00;50.10;;;;;;5034335;28;20441;-59
2022/12/07 10:19:26;;;;;;;7.23;6.90;;;22.00;50.10;;;;;;5034014;28;20851;-61
2022/12/07 10:22:08;;;;;;;7.80;7.50;;;22.00;50.10;;;;;;5034129;28;20476;-63
2022/12/07 10:24:37;;;;;;;6.10;6.00;;;22.00;50.10;;;;;;5033902;28;20514;-58
2022/12/07 10:27:05;;;;;;;6.47;6.37;;;22.00;50.00;;;;;;5034321;28;20460;-62
2022/12/07 10:29:35;;;;;;;7.17;6.87;;;22.00;50.00;;;;;;5034666;28;20445;-62
2022/12/07 10:32:04;;;;;;;6.93;6.63;;;22.00;50.00;;;;;;5035441;28;20492;-61
2022/12/07 10:34:33;;;;;;;6.70;6.50;;;22.00;50.00;;;;;;5033938;28;20809;-60
2022/12/07 10:37:17;;;;;;;6.77;6.57;;;22.00;49.90;;;;;;5033851;28;20487;-62
2022/12/07 10:39:46;;;;;;;6.53;6.33;;;22.00;49.90;;;;;;5033829;28;20792;-62
2022/12/07 10:42:22;;;;;;;6.83;6.63;;;22.00;49.80;;;;;;5033772;28;20438;-63
2022/12/07 10:44:50;;;;;;;7.13;6.93;;;22.00;49.80;;;;;;5034025;28;20479;-62
2022/12/07 10:47:25;;;;;;;6.50;6.20;;;22.00;49.80;;;;;;5033741;28;20441;-60
2022/12/07 10:50:24;;;;;;;6.83;6.60;;;22.00;49.80;;;;;;5033637;28;20444;-62
2022/12/07 10:53:05;;;;;;;7.03;6.53;;;22.00;49.80;;;;;;5033548;28;20452;-61
2022/12/07 10:55:48;;;;;;;6.33;6.23;;;22.00;49.70;;;;;;5035003;28;20870;-63
2022/12/07 10:58:32;;;;;;;6.33;6.23;;;22.10;49.80;;;;;;5033441;28;20480;-62
2022/12/07 11:01:09;;;;;;;6.67;6.47;;;22.10;49.70;;;;;;5033324;28;20933;-55
2022/12/07 11:03:48;;;;;;;6.40;6.20;;;22.10;49.70;;;;;;5033345;28;20826;-59
2022/12/07 11:06:23;;;;;;;7.07;6.80;;;22.10;49.60;;;;;;5033805;28;20527;-62
2022/12/07 11:09:03;;;;;;;6.90;6.50;;;22.10;49.60;;;;;;5033163;28;20464;-59
2022/12/07 11:11:36;;;;;;;7.10;6.70;;;22.10;49.50;;;;;;5033125;28;20955;-61
2022/12/07 11:14:15;;;;;;;6.43;6.33;;;22.10;49.50;;;;;;5033224;28;20540;-59
2022/12/07 11:16:54;;;;;;;6.60;6.40;;;22.10;49.50;;;;;;5033302;28;20543;-62
2022/12/07 11:19:40;;;;;;;6.43;6.33;;;22.10;49.50;;;;;;5032898;28;20572;-61
2022/12/07 11:22:14;;;;;;;6.87;6.67;;;22.20;49.60;;;;;;5033018;28;20452;-61
2022/12/07 11:24:50;;;;;;;7.27;7.07;;;22.20;49.50;;;;;;5032832;28;20553;-63
2022/12/07 11:27:24;;;;;;;6.63;6.43;;;22.20;49.50;;;;;;5033087;28;20535;-62
2022/12/07 11:30:02;;;;;;;6.83;6.63;;;22.20;49.40;;;;;;5032582;28;21014;-61
2022/12/07 11:32:45;;;;;;;6.60;6.50;;;22.20;49.30;;;;;;5032945;28;20472;-63
2022/12/07 11:35:18;;;;;;;7.50;7.20;;;22.20;49.30;;;;;;5032848;28;20461;-63
2022/12/07 11:37:47;;;;;;;6.70;6.40;;;22.20;49.20;;;;;;5032722;28;20979;-60
2022/12/07 11:40:21;;;;;;;6.50;6.30;;;22.20;49.20;;;;;;5032476;28;20445;-63
2022/12/07 11:42:56;;;;;;;7.07;6.87;;;22.20;49.20;;;;;;5029434;28;20524;-62
2022/12/07 11:45:30;;;;;;;7.47;7.27;;;22.20;49.70;;;;;;5015628;28;20453;-60
2022/12/07 11:48:01;;;;;;;7.37;7.17;;;22.10;50.20;;;;;;5012989;28;20469;-57
2022/12/07 11:50:34;;;;;;;7.00;6.90;;;22.10;50.50;;;;;;5012586;28;20446;-63
2022/12/07 11:53:04;;;;;;;7.97;7.77;;;22.00;50.60;;;;;;5016606;28;20549;-63
2022/12/07 11:55:42;;;;;;;7.60;7.40;;;22.10;50.80;;;;;;5012889;28;20874;-63
2022/12/07 11:58:21;;;;;;;7.23;7.00;;;22.10;50.90;;;;;;5026245;28;20487;-64
2022/12/07 12:00:50;;;;;;;7.13;6.97;;;22.10;51.00;;;;;;5032375;28;20794;-66
2022/12/07 12:03:24;;;;;;;7.53;7.30;;;22.20;51.00;;;;;;5032264;28;20497;-63
2022/12/07 12:05:51;;;;;;;7.80;7.60;;;22.20;50.90;;;;;;5032186;28;20483;-61
2022/12/07 12:08:24;;;;;;;7.50;7.30;;;22.20;50.60;;;;;;5017143;28;20446;-61
2022/12/07 12:10:58;;;;;;;7.50;7.30;;;22.30;50.60;;;;;;5012269;28;20537;-63
2022/12/07 12:14:00;;;;;;;7.30;7.10;;;22.30;50.60;;;;;;5012366;28;20885;-59
2022/12/07 12:16:51;;;;;;;8.03;7.83;;;22.40;50.60;;;;;;5021133;28;20485;-65
2022/12/07 12:19:25;;;;;;;8.50;8.20;;;22.50;50.60;;;;;;5031798;28;20480;-63
2022/12/07 12:21:58;;;;;;;7.10;6.90;;;22.50;51.00;;;;;;5031943;28;20523;-61
2022/12/07 12:24:27;;;;;;;7.30;7.10;;;22.50;50.40;;;;;;5031901;28;20465;-63
2022/12/07 12:27:05;;;;;;;7.03;6.83;;;22.50;50.30;;;;;;5015055;28;20529;-63
2022/12/07 12:29:36;;;;;;;6.80;6.50;;;22.60;50.80;;;;;;5011987;28;20452;-65
2022/12/07 12:32:14;;;;;;;7.10;6.90;;;22.60;50.40;;;;;;5012387;28;21019;-62
2022/12/07 12:34:57;;;;;;;7.07;6.87;;;22.70;50.80;;;;;;5023488;28;20471;-61
2022/12/07 12:37:44;;;;;;;7.20;7.00;;;22.70;50.20;;;;;;5031755;28;20812;-63
2022/12/07 12:40:42;;;;;;;7.80;7.50;;;22.70;50.30;;;;;;5031360;28;20487;-64
2022/12/07 12:43:45;;;;;;;7.47;7.20;;;22.70;50.10;;;;;;5031647;28;20512;-64
2022/12/07 12:46:47;;;;;;;7.57;7.30;;;22.80;50.00;;;;;;5031598;28;20453;-61
2022/12/07 12:49:42;;;;;;;7.03;6.83;;;22.80;49.80;;;;;;5009346;28;20448;-63
2022/12/07 12:52:51;;;;;;;7.27;7.07;;;22.80;49.60;;;;;;5031758;28;20775;-64
2022/12/07 12:55:23;;;;;;;7.57;7.37;;;22.80;49.50;;;;;;5030826;28;20525;-65
2022/12/07 12:58:31;;;;;;;7.40;7.10;;;22.80;49.40;;;;;;5032650;28;20449;-62
2022/12/07 13:01:40;;;;;;;6.70;6.50;;;22.80;49.40;;;;;;4996680;28;20453;-63
2022/12/07 13:04:29;;;;;;;7.03;6.83;;;22.80;49.30;;;;;;5020877;28;20563;-64
2022/12/07 13:06:57;;;;;;;6.90;6.60;;;22.70;49.20;;;;;;5031372;28;20509;-63
2022/12/07 13:09:27;;;;;;;6.97;6.77;;;22.70;49.20;;;;;;5031183;28;20959;-64
2022/12/07 13:12:02;;;;;;;7.27;7.07;;;22.70;49.20;;;;;;5031268;28;20523;-64